createdAt,value
2018-03-20T00:00:18.253Z,83.38
2018-03-20T00:01:18.834Z,84.53
2018-03-20T00:02:19.453Z,85.25
2018-03-20T00:03:20.029Z,84.49
2018-03-20T00:04:20.603Z,84.97
2018-03-20T00:05:21.180Z,89.57
2018-03-20T00:06:21.806Z,91.67
2018-03-20T00:07:22.432Z,91.39
2018-03-20T00:08:23.008Z,90.72
2018-03-20T00:09:23.585Z,90.95
2018-03-20T00:10:24.315Z,90.05
2018-03-20T00:11:24.885Z,90.76
2018-03-20T00:12:25.462Z,89.13
2018-03-20T00:13:26.040Z,89.51
2018-03-20T00:14:26.618Z,89.13
2018-03-20T00:15:27.197Z,89.61
2018-03-20T00:16:27.776Z,88.75
2018-03-20T00:17:28.354Z,88.65
2018-03-20T00:18:28.930Z,88.08
2018-03-20T00:19:29.506Z,89.13
2018-03-20T00:20:30.085Z,88.75
2018-03-20T00:21:30.757Z,89.51
2018-03-20T00:22:31.332Z,88.84
2018-03-20T00:23:31.907Z,89.23
2018-03-20T00:24:32.484Z,89.13
2018-03-20T00:25:33.109Z,88.65
2018-03-20T00:26:33.694Z,89.42
2018-03-20T00:27:34.263Z,89.61
2018-03-20T00:28:34.848Z,88.84
2018-03-20T00:29:35.420Z,88.99
2018-03-20T00:30:36.198Z,89.61
2018-03-20T00:31:36.973Z,89.23
2018-03-20T00:32:37.650Z,89.66
2018-03-20T00:33:38.226Z,88.75
2018-03-20T00:34:38.805Z,89.18
2018-03-20T00:35:39.382Z,89.37
2018-03-20T00:36:39.958Z,89.28
2018-03-20T00:37:40.576Z,88.61
2018-03-20T00:38:41.151Z,88.99
2018-03-20T00:39:41.727Z,88.61
2018-03-20T00:40:42.303Z,89.95
2018-03-20T00:41:42.879Z,88.99
2018-03-20T00:42:43.457Z,90.05
2018-03-20T00:43:44.036Z,90.23
2018-03-20T00:44:44.612Z,89.18
2018-03-20T00:45:45.240Z,90.53
2018-03-20T00:46:45.815Z,89.09
2018-03-20T00:47:46.392Z,89.86
2018-03-20T00:48:47.018Z,91.00
2018-03-20T00:49:47.600Z,90.53
2018-03-20T00:50:48.176Z,90.62
2018-03-20T00:51:48.751Z,89.18
2018-03-20T00:52:49.326Z,87.74
2018-03-20T00:53:49.954Z,89.76
2018-03-20T00:54:50.532Z,89.57
2018-03-20T00:55:51.110Z,90.05
2018-03-20T00:56:51.687Z,90.72
2018-03-20T00:57:52.264Z,89.28
2018-03-20T00:58:52.840Z,90.91
2018-03-20T00:59:53.416Z,89.18
2018-03-20T01:00:53.994Z,88.90
2018-03-20T01:01:54.568Z,88.99
2018-03-20T01:02:55.196Z,90.14
2018-03-20T01:03:55.777Z,89.66
2018-03-20T01:04:56.498Z,89.57
2018-03-20T01:05:57.073Z,88.80
2018-03-20T01:06:57.648Z,89.28
2018-03-20T01:07:58.223Z,87.94
2018-03-20T01:08:58.848Z,89.14
2018-03-20T01:09:59.423Z,88.66
2018-03-20T01:11:00.009Z,89.43
2018-03-20T01:12:00.579Z,89.52
2018-03-20T01:13:01.155Z,89.62
2018-03-20T01:14:01.732Z,89.72
2018-03-20T01:15:02.307Z,90.67
2018-03-20T01:16:02.932Z,90.67
2018-03-20T01:17:03.511Z,89.72
2018-03-20T01:18:04.089Z,90.39
2018-03-20T01:19:04.721Z,90.09
2018-03-20T01:20:05.292Z,90.14
2018-03-20T01:21:05.866Z,90.91
2018-03-20T01:22:06.441Z,90.53
2018-03-20T01:23:07.067Z,91.00
2018-03-20T01:24:07.792Z,89.09
2018-03-20T01:25:08.367Z,88.90
2018-03-20T01:26:08.944Z,89.57
2018-03-20T01:27:09.520Z,88.80
2018-03-20T01:28:10.097Z,89.23
2018-03-20T01:29:10.672Z,88.76
2018-03-20T01:30:11.247Z,88.37
2018-03-20T01:31:11.973Z,87.80
2018-03-20T01:32:12.550Z,88.85
2018-03-20T01:33:13.126Z,87.61
2018-03-20T01:34:13.702Z,87.41
2018-03-20T01:35:14.278Z,90.29
2018-03-20T01:36:14.856Z,90.96
2018-03-20T01:37:15.434Z,89.62
2018-03-20T01:38:16.012Z,88.66
2018-03-20T01:39:16.588Z,89.14
2018-03-20T01:40:17.316Z,89.52
2018-03-20T01:41:17.891Z,89.33
2018-03-20T01:42:18.466Z,90.67
2018-03-20T01:43:19.094Z,89.90
2018-03-20T01:44:19.672Z,88.09
2018-03-20T01:45:20.249Z,90.00
2018-03-20T01:46:20.824Z,90.39
2018-03-20T01:47:21.452Z,88.66
2018-03-20T01:48:22.029Z,88.56
2018-03-20T01:49:22.606Z,88.37
2018-03-20T01:50:23.183Z,88.66
2018-03-20T01:51:23.756Z,89.90
2018-03-20T01:52:24.331Z,90.58
2018-03-20T01:53:24.912Z,89.62
2018-03-20T01:54:25.541Z,89.72
2018-03-20T01:55:26.058Z,86.65
2018-03-20T01:56:26.632Z,89.81
2018-03-20T01:57:27.213Z,91.05
2018-03-20T01:58:27.789Z,89.14
2018-03-20T01:59:28.409Z,89.23
2018-03-20T02:00:28.986Z,90.67
2018-03-20T02:01:29.564Z,90.86
2018-03-20T02:02:30.142Z,90.29
2018-03-20T02:03:30.768Z,89.81
2018-03-20T02:04:31.342Z,90.09
2018-03-20T02:05:31.971Z,90.86
2018-03-20T02:06:32.546Z,90.96
2018-03-20T02:07:33.122Z,90.96
2018-03-20T02:08:33.700Z,91.15
2018-03-20T02:09:34.275Z,90.58
2018-03-20T02:10:34.854Z,90.86
2018-03-20T02:11:35.480Z,90.96
2018-03-20T02:12:36.108Z,90.29
2018-03-20T02:13:36.684Z,89.81
2018-03-20T02:14:37.262Z,90.96
2018-03-20T02:15:37.890Z,89.90
2018-03-20T02:16:38.463Z,90.39
2018-03-20T02:17:39.039Z,89.81
2018-03-20T02:18:39.613Z,90.39
2018-03-20T02:19:40.189Z,90.58
2018-03-20T02:20:40.814Z,89.43
2018-03-20T02:21:41.392Z,91.15
2018-03-20T02:22:41.968Z,89.52
2018-03-20T02:23:42.545Z,90.19
2018-03-20T02:24:43.122Z,87.23
2018-03-20T02:25:43.697Z,89.33
2018-03-20T02:26:44.272Z,90.00
2018-03-20T02:27:44.852Z,90.96
2018-03-20T02:28:45.424Z,90.77
2018-03-20T02:29:46.048Z,90.48
2018-03-20T02:30:46.624Z,89.81
2018-03-20T02:31:47.200Z,88.56
2018-03-20T02:32:47.832Z,88.09
2018-03-20T02:33:48.398Z,91.05
2018-03-20T02:34:48.972Z,92.01
2018-03-20T02:35:49.549Z,92.78
2018-03-20T02:36:50.174Z,92.87
2018-03-20T02:37:50.791Z,91.53
2018-03-20T02:38:51.371Z,92.01
2018-03-20T02:39:51.943Z,92.11
2018-03-20T02:40:52.521Z,92.97
2018-03-20T02:41:53.100Z,92.68
2018-03-20T02:42:53.674Z,91.92
2018-03-20T02:43:54.256Z,92.01
2018-03-20T02:44:54.827Z,91.82
2018-03-20T02:45:55.403Z,91.34
2018-03-20T02:46:55.979Z,91.34
2018-03-20T02:47:56.608Z,90.77
2018-03-20T02:48:57.234Z,91.63
2018-03-20T02:49:57.817Z,91.63
2018-03-20T02:50:58.388Z,92.21
2018-03-20T02:51:58.965Z,91.72
2018-03-20T02:52:59.545Z,92.01
2018-03-20T02:54:00.120Z,92.78
2018-03-20T02:55:00.696Z,91.63
2018-03-20T02:56:01.271Z,91.63
2018-03-20T02:57:01.848Z,92.01
2018-03-20T02:58:02.475Z,92.01
2018-03-20T02:59:03.052Z,91.63
2018-03-20T03:00:03.627Z,91.72
2018-03-20T03:01:04.203Z,92.11
2018-03-20T03:02:04.779Z,92.01
2018-03-20T03:03:05.355Z,91.92
2018-03-20T03:04:05.932Z,92.78
2018-03-20T03:05:06.505Z,92.01
2018-03-20T03:06:07.232Z,92.01
2018-03-20T03:07:07.808Z,92.11
2018-03-20T03:08:08.425Z,91.72
2018-03-20T03:09:08.961Z,90.19
2018-03-20T03:10:09.587Z,90.96
2018-03-20T03:11:10.166Z,90.29
2018-03-20T03:12:10.738Z,88.37
2018-03-20T03:13:11.320Z,90.86
2018-03-20T03:14:11.897Z,90.86
2018-03-20T03:15:12.625Z,90.96
2018-03-20T03:16:13.201Z,90.96
2018-03-20T03:17:13.777Z,89.72
2018-03-20T03:18:14.353Z,90.96
2018-03-20T03:19:14.927Z,90.05
2018-03-20T03:20:15.505Z,90.24
2018-03-20T03:21:16.080Z,91.11
2018-03-20T03:22:16.706Z,90.91
2018-03-20T03:23:17.284Z,90.91
2018-03-20T03:24:17.860Z,90.91
2018-03-20T03:25:18.437Z,90.82
2018-03-20T03:26:19.213Z,90.00
2018-03-20T03:27:19.790Z,91.77
2018-03-20T03:28:20.366Z,90.24
2018-03-20T03:29:20.942Z,91.15
2018-03-20T03:30:21.568Z,91.87
2018-03-20T03:31:22.199Z,90.44
2018-03-20T03:32:22.813Z,89.95
2018-03-20T03:33:23.391Z,91.68
2018-03-20T03:34:23.967Z,92.73
2018-03-20T03:35:24.538Z,90.82
2018-03-20T03:36:25.113Z,89.76
2018-03-20T03:37:25.697Z,88.43
2018-03-20T03:38:26.266Z,89.29
2018-03-20T03:39:26.840Z,89.09
2018-03-20T03:40:27.417Z,89.67
2018-03-20T03:41:27.993Z,92.16
2018-03-20T03:42:28.570Z,90.39
2018-03-20T03:43:29.148Z,89.72
2018-03-20T03:44:29.723Z,90.67
2018-03-20T03:45:30.303Z,92.35
2018-03-20T03:46:30.927Z,92.54
2018-03-20T03:47:31.554Z,92.73
2018-03-20T03:48:32.282Z,92.83
2018-03-20T03:49:32.860Z,91.20
2018-03-20T03:50:33.433Z,91.39
2018-03-20T03:51:34.009Z,92.25
2018-03-20T03:52:34.584Z,92.54
2018-03-20T03:53:35.159Z,90.82
2018-03-20T03:54:35.789Z,89.95
2018-03-20T03:55:36.361Z,89.19
2018-03-20T03:56:36.937Z,92.35
2018-03-20T03:57:37.516Z,87.08
2018-03-20T03:58:38.091Z,91.20
2018-03-20T03:59:38.665Z,91.01
2018-03-20T04:00:39.241Z,90.91
2018-03-20T04:01:39.868Z,91.39
2018-03-20T04:02:40.444Z,89.76
2018-03-20T04:03:41.021Z,91.30
2018-03-20T04:04:41.688Z,91.01
2018-03-20T04:05:42.264Z,90.05
2018-03-20T04:06:42.891Z,90.72
2018-03-20T04:07:43.465Z,90.53
2018-03-20T04:08:44.042Z,89.00
2018-03-20T04:09:44.616Z,90.34
2018-03-20T04:10:45.192Z,91.20
2018-03-20T04:11:45.769Z,91.01
2018-03-20T04:12:46.386Z,90.72
2018-03-20T04:13:46.962Z,92.83
2018-03-20T04:14:47.539Z,92.06
2018-03-20T04:15:48.117Z,91.97
2018-03-20T04:16:48.692Z,91.87
2018-03-20T04:17:49.270Z,91.49
2018-03-20T04:18:49.902Z,89.86
2018-03-20T04:19:50.473Z,89.86
2018-03-20T04:20:51.052Z,89.00
2018-03-20T04:21:51.677Z,89.86
2018-03-20T04:22:52.304Z,91.68
2018-03-20T04:23:52.883Z,90.24
2018-03-20T04:24:53.466Z,90.82
2018-03-20T04:25:54.044Z,90.62
2018-03-20T04:26:54.622Z,91.58
2018-03-20T04:27:55.249Z,92.25
2018-03-20T04:28:55.824Z,90.91
2018-03-20T04:29:56.400Z,91.97
2018-03-20T04:30:56.976Z,90.62
2018-03-20T04:31:57.552Z,89.38
2018-03-20T04:32:58.131Z,90.15
2018-03-20T04:33:58.711Z,88.33
2018-03-20T04:34:59.280Z,90.72
2018-03-20T04:35:59.855Z,88.52
2018-03-20T04:37:00.431Z,89.09
2018-03-20T04:38:01.059Z,90.15
2018-03-20T04:39:01.637Z,90.15
2018-03-20T04:40:02.263Z,87.56
2018-03-20T04:41:02.889Z,87.90
2018-03-20T04:42:03.465Z,90.77
2018-03-20T04:43:04.041Z,89.62
2018-03-20T04:44:04.620Z,88.67
2018-03-20T04:45:05.251Z,88.67
2018-03-20T04:46:05.865Z,88.67
2018-03-20T04:47:06.442Z,90.96
2018-03-20T04:48:07.016Z,92.59
2018-03-20T04:49:07.592Z,92.21
2018-03-20T04:50:08.169Z,92.69
2018-03-20T04:51:08.800Z,92.73
2018-03-20T04:52:09.419Z,91.87
2018-03-20T04:53:09.998Z,91.77
2018-03-20T04:54:10.572Z,90.15
2018-03-20T04:55:11.148Z,88.67
2018-03-20T04:56:11.882Z,88.13
2018-03-20T04:57:12.490Z,88.71
2018-03-20T04:58:13.118Z,90.87
2018-03-20T04:59:13.774Z,90.39
2018-03-20T05:00:14.329Z,91.68
2018-03-20T05:01:14.896Z,90.96
2018-03-20T05:02:15.477Z,90.91
2018-03-20T05:03:16.048Z,91.97
2018-03-20T05:04:16.625Z,90.05
2018-03-20T05:05:17.204Z,90.82
2018-03-20T05:06:17.778Z,88.76
2018-03-20T05:07:18.358Z,90.82
2018-03-20T05:08:18.935Z,90.72
2018-03-20T05:09:19.509Z,88.62
2018-03-20T05:10:20.083Z,87.56
2018-03-20T05:11:20.658Z,89.72
2018-03-20T05:12:21.382Z,88.76
2018-03-20T05:13:21.957Z,90.01
2018-03-20T05:14:22.533Z,89.81
2018-03-20T05:15:23.111Z,86.47
2018-03-20T05:16:23.686Z,88.86
2018-03-20T05:17:24.261Z,88.48
2018-03-20T05:18:24.887Z,89.72
2018-03-20T05:19:25.511Z,90.96
2018-03-20T05:20:26.085Z,87.43
2018-03-20T05:21:26.660Z,89.24
2018-03-20T05:22:27.238Z,90.58
2018-03-20T05:23:27.855Z,89.15
2018-03-20T05:24:28.433Z,90.30
2018-03-20T05:25:29.009Z,89.24
2018-03-20T05:26:29.586Z,86.47
2018-03-20T05:27:30.163Z,87.81
2018-03-20T05:28:30.740Z,90.39
2018-03-20T05:29:31.316Z,91.83
2018-03-20T05:30:31.944Z,89.43
2018-03-20T05:31:32.518Z,90.48
2018-03-20T05:32:33.092Z,89.34
2018-03-20T05:33:33.718Z,87.90
2018-03-20T05:34:34.295Z,90.10
2018-03-20T05:35:34.871Z,87.43
2018-03-20T05:36:35.497Z,90.87
2018-03-20T05:37:36.074Z,89.05
2018-03-20T05:38:36.649Z,85.89
2018-03-20T05:39:37.228Z,89.34
2018-03-20T05:40:37.802Z,88.38
2018-03-20T05:41:38.430Z,88.48
2018-03-20T05:42:39.005Z,86.66
2018-03-20T05:43:39.582Z,89.05
2018-03-20T05:44:40.161Z,89.15
2018-03-20T05:45:40.734Z,85.99
2018-03-20T05:46:41.298Z,85.61
2018-03-20T05:47:41.917Z,87.43
2018-03-20T05:48:42.484Z,88.48
2018-03-20T05:49:43.053Z,88.67
2018-03-20T05:50:43.672Z,88.67
2018-03-20T05:51:44.242Z,88.57
2018-03-20T05:52:44.812Z,84.75
2018-03-20T05:53:45.434Z,88.95
2018-03-20T05:54:45.999Z,86.66
2018-03-20T05:55:46.569Z,89.24
2018-03-20T05:56:47.188Z,88.76
2018-03-20T05:57:47.758Z,89.81
2018-03-20T05:58:48.328Z,87.81
2018-03-20T05:59:48.897Z,86.28
2018-03-20T06:00:49.467Z,87.90
2018-03-20T06:01:50.037Z,86.47
2018-03-20T06:02:50.647Z,85.61
2018-03-20T06:03:51.217Z,88.00
2018-03-20T06:04:51.839Z,86.76
2018-03-20T06:05:52.409Z,88.57
2018-03-20T06:06:52.980Z,89.15
2018-03-20T06:07:53.551Z,88.76
2018-03-20T06:08:54.121Z,89.24
2018-03-20T06:09:54.742Z,88.76
2018-03-20T06:10:55.313Z,85.89
2018-03-20T06:11:56.038Z,89.43
2018-03-20T06:12:56.605Z,88.57
2018-03-20T06:13:57.176Z,89.05
2018-03-20T06:14:57.744Z,89.43
2018-03-20T06:15:58.316Z,87.71
2018-03-20T06:16:58.886Z,89.34
2018-03-20T06:17:59.457Z,89.72
2018-03-20T06:19:00.030Z,87.62
2018-03-20T06:20:00.600Z,85.13
2018-03-20T06:21:01.170Z,80.35
2018-03-20T06:22:01.836Z,87.81
2018-03-20T06:23:02.404Z,88.09
2018-03-20T06:24:02.977Z,87.52
2018-03-20T06:25:03.549Z,85.47
2018-03-20T06:26:04.119Z,87.62
2018-03-20T06:27:04.691Z,86.80
2018-03-20T06:28:05.266Z,89.15
2018-03-20T06:29:05.886Z,86.66
2018-03-20T06:30:06.457Z,87.14
2018-03-20T06:31:07.077Z,87.04
2018-03-20T06:32:07.697Z,90.58
2018-03-20T06:33:08.268Z,87.81
2018-03-20T06:34:08.839Z,83.98
2018-03-20T06:35:09.461Z,85.80
2018-03-20T06:36:10.031Z,86.52
2018-03-20T06:37:10.603Z,87.38
2018-03-20T06:38:11.181Z,88.67
2018-03-20T06:39:11.743Z,87.29
2018-03-20T06:40:12.314Z,89.15
2018-03-20T06:41:12.887Z,89.15
2018-03-20T06:42:13.458Z,86.57
2018-03-20T06:43:14.028Z,88.00
2018-03-20T06:44:14.600Z,90.87
2018-03-20T06:45:15.172Z,89.24
2018-03-20T06:46:15.741Z,89.62
2018-03-20T06:47:16.464Z,84.65
2018-03-20T06:48:17.037Z,86.76
2018-03-20T06:49:17.607Z,85.32
2018-03-20T06:50:18.183Z,88.86
2018-03-20T06:51:18.843Z,88.00
2018-03-20T06:52:19.412Z,87.52
2018-03-20T06:53:19.986Z,89.24
2018-03-20T06:54:20.558Z,90.87
2018-03-20T06:55:21.277Z,89.24
2018-03-20T06:56:21.849Z,88.38
2018-03-20T06:57:22.419Z,86.85
2018-03-20T06:58:22.991Z,88.67
2018-03-20T06:59:23.612Z,87.71
2018-03-20T07:00:24.176Z,89.62
2018-03-20T07:01:24.752Z,87.14
2018-03-20T07:02:25.318Z,89.15
2018-03-20T07:03:25.940Z,86.18
2018-03-20T07:04:26.512Z,86.28
2018-03-20T07:05:27.082Z,89.34
2018-03-20T07:06:27.652Z,89.05
2018-03-20T07:07:28.222Z,88.95
2018-03-20T07:08:28.793Z,86.08
2018-03-20T07:09:29.363Z,85.71
2018-03-20T07:10:29.983Z,86.76
2018-03-20T07:11:30.555Z,84.55
2018-03-20T07:12:31.218Z,88.67
2018-03-20T07:13:31.790Z,87.81
2018-03-20T07:14:32.402Z,88.57
2018-03-20T07:15:32.973Z,89.05
2018-03-20T07:16:33.544Z,89.72
2018-03-20T07:17:34.114Z,86.47
2018-03-20T07:18:34.687Z,87.04
2018-03-20T07:19:35.258Z,86.57
2018-03-20T07:20:35.828Z,83.12
2018-03-20T07:21:36.400Z,86.66
2018-03-20T07:22:37.058Z,86.85
2018-03-20T07:23:37.593Z,83.03
2018-03-20T07:24:38.165Z,86.43
2018-03-20T07:25:38.785Z,87.19
2018-03-20T07:26:39.359Z,88.57
2018-03-20T07:27:39.970Z,82.31
2018-03-20T07:28:40.544Z,85.03
2018-03-20T07:29:41.116Z,89.34
2018-03-20T07:30:41.839Z,86.61
2018-03-20T07:31:42.451Z,82.45
2018-03-20T07:32:43.022Z,85.57
2018-03-20T07:33:43.592Z,86.04
2018-03-20T07:34:44.217Z,83.27
2018-03-20T07:35:44.827Z,83.84
2018-03-20T07:36:45.397Z,85.94
2018-03-20T07:37:46.018Z,86.33
2018-03-20T07:38:46.587Z,84.70
2018-03-20T07:39:47.160Z,86.80
2018-03-20T07:40:47.733Z,80.98
2018-03-20T07:41:48.353Z,85.47
2018-03-20T07:42:48.923Z,84.52
2018-03-20T07:43:49.493Z,86.43
2018-03-20T07:44:50.064Z,88.43
2018-03-20T07:45:50.633Z,88.81
2018-03-20T07:46:51.253Z,87.38
2018-03-20T07:47:51.874Z,86.43
2018-03-20T07:48:52.445Z,86.52
2018-03-20T07:49:53.017Z,84.13
2018-03-20T07:50:53.638Z,86.61
2018-03-20T07:51:54.210Z,85.85
2018-03-20T07:52:54.781Z,86.52
2018-03-20T07:53:55.352Z,83.46
2018-03-20T07:54:55.924Z,86.04
2018-03-20T07:55:56.495Z,81.93
2018-03-20T07:56:57.118Z,84.23
2018-03-20T07:57:57.690Z,84.52
2018-03-20T07:58:58.308Z,87.48
2018-03-20T07:59:58.878Z,87.29
2018-03-20T08:00:59.448Z,86.43
2018-03-20T08:02:00.020Z,87.00
2018-03-20T08:03:00.590Z,86.43
2018-03-20T08:04:01.159Z,88.67
2018-03-20T08:05:01.781Z,84.99
2018-03-20T08:06:02.352Z,81.45
2018-03-20T08:07:02.922Z,84.89
2018-03-20T08:08:03.493Z,88.15
2018-03-20T08:09:04.062Z,88.91
2018-03-20T08:10:04.633Z,90.25
2018-03-20T08:11:05.204Z,85.28
2018-03-20T08:12:05.774Z,86.33
2018-03-20T08:13:06.434Z,85.85
2018-03-20T08:14:07.018Z,86.61
2018-03-20T08:15:07.590Z,88.81
2018-03-20T08:16:08.160Z,89.77
2018-03-20T08:17:08.730Z,92.21
2018-03-20T08:18:09.302Z,91.53
2018-03-20T08:19:09.902Z,90.96
2018-03-20T08:20:10.445Z,89.05
2018-03-20T08:21:11.015Z,89.72
2018-03-20T08:22:11.587Z,84.36
2018-03-20T08:23:12.162Z,88.00
2018-03-20T08:24:12.730Z,88.67
2018-03-20T08:25:13.300Z,87.81
2018-03-20T08:26:13.923Z,88.76
2018-03-20T08:27:14.496Z,89.15
2018-03-20T08:28:15.109Z,91.16
2018-03-20T08:29:15.702Z,90.20
2018-03-20T08:30:16.252Z,89.43
2018-03-20T08:31:16.874Z,89.72
2018-03-20T08:32:17.593Z,88.48
2018-03-20T08:33:18.165Z,88.76
2018-03-20T08:34:18.789Z,88.95
2018-03-20T08:35:19.360Z,89.24
2018-03-20T08:36:19.933Z,89.53
2018-03-20T08:37:20.505Z,88.86
2018-03-20T08:38:21.077Z,88.48
2018-03-20T08:39:21.646Z,87.52
2018-03-20T08:40:22.218Z,86.66
2018-03-20T08:41:22.791Z,89.81
2018-03-20T08:42:23.359Z,86.66
2018-03-20T08:43:23.932Z,89.15
2018-03-20T08:44:24.508Z,88.76
2018-03-20T08:45:25.076Z,90.96
2018-03-20T08:46:25.694Z,88.86
2018-03-20T08:47:26.266Z,89.72
2018-03-20T08:48:26.838Z,88.38
2018-03-20T08:49:27.412Z,88.76
2018-03-20T08:50:27.983Z,85.51
2018-03-20T08:51:28.555Z,86.47
2018-03-20T08:52:29.180Z,89.15
2018-03-20T08:53:29.751Z,89.05
2018-03-20T08:54:30.376Z,87.62
2018-03-20T08:55:30.946Z,88.86
2018-03-20T08:56:31.519Z,91.16
2018-03-20T08:57:32.090Z,88.48
2018-03-20T08:58:32.661Z,89.72
2018-03-20T08:59:33.235Z,89.72
2018-03-20T09:00:33.845Z,89.72
2018-03-20T09:01:34.380Z,88.76
2018-03-20T09:02:34.952Z,84.46
2018-03-20T09:03:35.522Z,84.36
2018-03-20T09:04:36.145Z,86.94
2018-03-20T09:05:36.717Z,81.30
2018-03-20T09:06:37.293Z,84.32
2018-03-20T09:07:37.862Z,88.81
2018-03-20T09:08:38.436Z,89.05
2018-03-20T09:09:39.008Z,85.66
2018-03-20T09:10:39.628Z,86.18
2018-03-20T09:11:40.212Z,87.48
2018-03-20T09:12:40.772Z,86.47
2018-03-20T09:13:41.396Z,87.04
2018-03-20T09:14:41.969Z,84.84
2018-03-20T09:15:42.548Z,85.09
2018-03-20T09:16:43.114Z,85.57
2018-03-20T09:17:43.684Z,85.94
2018-03-20T09:18:44.305Z,81.93
2018-03-20T09:19:44.880Z,79.44
2018-03-20T09:20:45.450Z,82.12
2018-03-20T09:21:46.022Z,86.71
2018-03-20T09:22:46.592Z,84.32
2018-03-20T09:23:47.164Z,84.03
2018-03-20T09:24:47.783Z,85.38
2018-03-20T09:25:48.358Z,82.70
2018-03-20T09:26:49.079Z,85.75
2018-03-20T09:27:49.651Z,85.57
2018-03-20T09:28:50.223Z,89.87
2018-03-20T09:29:50.832Z,88.72
2018-03-20T09:30:51.369Z,86.04
2018-03-20T09:31:51.941Z,83.94
2018-03-20T09:32:52.564Z,86.61
2018-03-20T09:33:53.190Z,84.80
2018-03-20T09:34:53.803Z,87.29
2018-03-20T09:35:54.378Z,82.98
2018-03-20T09:36:54.951Z,86.80
2018-03-20T09:37:55.522Z,86.52
2018-03-20T09:38:56.095Z,89.43
2018-03-20T09:39:56.673Z,88.76
2018-03-20T09:40:57.246Z,86.47
2018-03-20T09:41:57.819Z,84.65
2018-03-20T09:42:58.542Z,85.61
2018-03-20T09:43:59.164Z,87.71
2018-03-20T09:44:59.734Z,88.38
2018-03-20T09:46:00.309Z,88.00
2018-03-20T09:47:00.922Z,87.81
2018-03-20T09:48:01.494Z,86.08
2018-03-20T09:49:02.112Z,83.69
2018-03-20T09:50:02.690Z,86.66
2018-03-20T09:51:03.263Z,87.52
2018-03-20T09:52:03.836Z,84.55
2018-03-20T09:53:04.456Z,86.47
2018-03-20T09:54:05.077Z,85.89
2018-03-20T09:55:05.698Z,85.32
2018-03-20T09:56:06.269Z,84.36
2018-03-20T09:57:06.840Z,86.08
2018-03-20T09:58:07.413Z,87.33
2018-03-20T09:59:07.986Z,84.08
2018-03-20T10:00:08.612Z,88.19
2018-03-20T10:01:09.224Z,86.76
2018-03-20T10:02:09.794Z,88.76
2018-03-20T10:03:10.419Z,85.13
2018-03-20T10:04:10.986Z,87.71
2018-03-20T10:05:11.557Z,87.33
2018-03-20T10:06:12.127Z,85.13
2018-03-20T10:07:12.699Z,85.99
2018-03-20T10:08:13.271Z,86.57
2018-03-20T10:09:13.846Z,81.97
2018-03-20T10:10:14.459Z,86.28
2018-03-20T10:11:15.083Z,85.41
2018-03-20T10:12:15.698Z,85.80
2018-03-20T10:13:16.271Z,85.13
2018-03-20T10:14:16.842Z,85.71
2018-03-20T10:15:17.413Z,85.61
2018-03-20T10:16:17.986Z,84.36
2018-03-20T10:17:18.560Z,84.27
2018-03-20T10:18:19.132Z,86.47
2018-03-20T10:19:19.704Z,86.47
2018-03-20T10:20:20.376Z,86.18
2018-03-20T10:21:20.899Z,85.99
2018-03-20T10:22:21.678Z,86.08
2018-03-20T10:23:22.247Z,86.28
2018-03-20T10:24:22.816Z,85.51
2018-03-20T10:25:23.392Z,84.27
2018-03-20T10:26:24.009Z,84.94
2018-03-20T10:27:24.576Z,84.55
2018-03-20T10:28:25.148Z,81.88
2018-03-20T10:29:25.769Z,80.35
2018-03-20T10:30:26.342Z,83.40
2018-03-20T10:31:26.914Z,79.58
2018-03-20T10:32:27.488Z,81.30
2018-03-20T10:33:28.057Z,84.08
2018-03-20T10:34:28.635Z,85.61
2018-03-20T10:35:29.202Z,87.04
2018-03-20T10:36:29.824Z,85.03
2018-03-20T10:37:30.397Z,83.98
2018-03-20T10:38:30.970Z,82.64
2018-03-20T10:39:31.591Z,85.32
2018-03-20T10:40:32.161Z,83.03
2018-03-20T10:41:32.741Z,83.98
2018-03-20T10:42:33.306Z,81.59
2018-03-20T10:43:33.878Z,82.93
2018-03-20T10:44:34.452Z,83.79
2018-03-20T10:45:35.074Z,80.35
2018-03-20T10:46:35.645Z,82.45
2018-03-20T10:47:36.218Z,80.35
2018-03-20T10:48:36.791Z,81.68
2018-03-20T10:49:37.364Z,83.69
2018-03-20T10:50:37.938Z,85.99
2018-03-20T10:51:38.508Z,82.54
2018-03-20T10:52:39.131Z,80.96
2018-03-20T10:53:39.705Z,84.69
2018-03-20T10:54:40.278Z,85.65
2018-03-20T10:55:40.901Z,81.15
2018-03-20T10:56:41.525Z,79.52
2018-03-20T10:57:42.097Z,79.43
2018-03-20T10:58:42.677Z,77.99
2018-03-20T10:59:43.294Z,82.01
2018-03-20T11:00:43.869Z,80.29
2018-03-20T11:01:44.440Z,81.63
2018-03-20T11:02:45.012Z,82.78
2018-03-20T11:03:45.585Z,82.49
2018-03-20T11:04:46.203Z,85.46
2018-03-20T11:05:46.775Z,80.77
2018-03-20T11:06:47.347Z,81.54
2018-03-20T11:07:47.920Z,81.25
2018-03-20T11:08:48.493Z,81.73
2018-03-20T11:09:49.065Z,81.05
2018-03-20T11:10:49.638Z,80.38
2018-03-20T11:11:50.260Z,85.46
2018-03-20T11:12:50.833Z,82.40
2018-03-20T11:13:51.407Z,86.51
2018-03-20T11:14:51.979Z,86.51
2018-03-20T11:15:52.552Z,86.61
2018-03-20T11:16:53.123Z,87.03
2018-03-20T11:17:53.704Z,86.46
2018-03-20T11:18:54.272Z,81.86
2018-03-20T11:19:54.993Z,85.60
2018-03-20T11:20:55.716Z,86.36
2018-03-20T11:21:56.288Z,82.06
2018-03-20T11:22:56.861Z,86.27
2018-03-20T11:23:57.435Z,81.96
2018-03-20T11:24:58.007Z,78.80
2018-03-20T11:25:58.581Z,81.77
2018-03-20T11:26:59.154Z,77.55
2018-03-20T11:27:59.730Z,77.17
2018-03-20T11:29:00.303Z,78.99
2018-03-20T11:30:00.873Z,77.17
2018-03-20T11:31:01.496Z,80.43
2018-03-20T11:32:02.088Z,77.75
2018-03-20T11:33:02.642Z,75.35
2018-03-20T11:34:03.215Z,81.10
2018-03-20T11:35:03.786Z,77.46
2018-03-20T11:36:04.359Z,78.13
2018-03-20T11:37:04.940Z,74.72
2018-03-20T11:38:05.549Z,77.55
2018-03-20T11:39:06.122Z,75.96
2018-03-20T11:40:06.744Z,74.15
2018-03-20T11:41:07.365Z,74.33
2018-03-20T11:42:07.938Z,74.05
2018-03-20T11:43:08.561Z,73.66
2018-03-20T11:44:09.138Z,74.24
2018-03-20T11:45:09.750Z,74.33
2018-03-20T11:46:10.320Z,72.71
2018-03-20T11:47:10.894Z,72.90
2018-03-20T11:48:11.465Z,75.10
2018-03-20T11:49:12.036Z,74.05
2018-03-20T11:50:12.611Z,75.29
2018-03-20T11:51:13.184Z,72.90
2018-03-20T11:52:13.756Z,72.32
2018-03-20T11:53:14.330Z,73.66
2018-03-20T11:54:14.902Z,75.68
2018-03-20T11:55:15.478Z,76.06
2018-03-20T11:56:16.102Z,75.10
2018-03-20T11:57:16.729Z,76.82
2018-03-20T11:58:17.348Z,73.09
2018-03-20T11:59:17.923Z,72.90
2018-03-20T12:00:18.495Z,70.98
2018-03-20T12:01:19.067Z,70.70
2018-03-20T12:02:19.645Z,70.03
2018-03-20T12:03:20.214Z,71.94
2018-03-20T12:04:20.788Z,72.32
2018-03-20T12:05:21.362Z,71.75
2018-03-20T12:06:21.933Z,72.42
2018-03-20T12:07:22.507Z,71.17
2018-03-20T12:08:23.078Z,71.08
2018-03-20T12:09:23.653Z,70.50
2018-03-20T12:10:24.226Z,70.21
2018-03-20T12:11:24.848Z,70.70
2018-03-20T12:12:25.421Z,70.98
2018-03-20T12:13:25.994Z,70.31
2018-03-20T12:14:26.568Z,72.03
2018-03-20T12:15:27.192Z,71.56
2018-03-20T12:16:27.767Z,72.42
2018-03-20T12:17:28.437Z,71.46
2018-03-20T12:18:29.007Z,71.94
2018-03-20T12:19:29.630Z,73.47
2018-03-20T12:20:30.204Z,73.47
2018-03-20T12:21:30.775Z,74.24
2018-03-20T12:22:31.349Z,72.52
2018-03-20T12:23:31.925Z,72.03
2018-03-20T12:24:32.498Z,71.08
2018-03-20T12:25:33.071Z,70.79
2018-03-20T12:26:33.669Z,71.37
2018-03-20T12:27:34.212Z,70.89
2018-03-20T12:28:34.837Z,72.52
2018-03-20T12:29:35.415Z,69.93
2018-03-20T12:30:36.083Z,70.41
2018-03-20T12:31:36.656Z,71.37
2018-03-20T12:32:37.232Z,70.79
2018-03-20T12:33:37.805Z,70.98
2018-03-20T12:34:38.380Z,71.27
2018-03-20T12:35:39.004Z,69.54
2018-03-20T12:36:39.580Z,69.26
2018-03-20T12:37:40.151Z,70.60
2018-03-20T12:38:40.725Z,73.66
2018-03-20T12:39:41.301Z,73.47
2018-03-20T12:40:41.874Z,70.50
2018-03-20T12:41:42.447Z,71.75
2018-03-20T12:42:43.119Z,75.10
2018-03-20T12:43:43.691Z,73.86
2018-03-20T12:44:44.263Z,74.15
2018-03-20T12:45:44.833Z,72.13
2018-03-20T12:46:45.445Z,71.46
2018-03-20T12:47:45.979Z,70.98
2018-03-20T12:48:46.551Z,71.84
2018-03-20T12:49:47.127Z,74.72
2018-03-20T12:50:47.699Z,73.66
2018-03-20T12:51:48.273Z,76.25
2018-03-20T12:52:48.996Z,74.62
2018-03-20T12:53:49.620Z,73.28
2018-03-20T12:54:50.191Z,73.38
2018-03-20T12:55:50.765Z,71.42
2018-03-20T12:56:51.338Z,73.82
2018-03-20T12:57:51.910Z,71.42
2018-03-20T12:58:52.485Z,71.62
2018-03-20T12:59:53.058Z,72.38